Daily Weather Observations for Burdell (Townsville)
For Saturday 2nd February 2019

This table is designed for ease of comparison to Bureau of Meteorology recorded weather data.

Station Details Name: BURDELL Lat: -19.24 Lon: 146.69 Height: 8.5 m
Date/Time
EST
Temp
°C
App
Temp
°C
Dew
Point
°C
Rel
Hum
%
Delta-T
°C
Wind Press
QNH
hPa
Press
MSL
hPa
Rain since
9am
mm
Dir  Spd
km/h
Gust
km/h
Spd
kts
Gust
kts
02/11:30pm 23.6 23.3 23.4 99 0.1 SE 34 50 18 27 1002.9 1002.9 120.4
02/11:00pm 23.9 25.7 23.9 100 -0.0 SE 25 39 14 21 1003.3 1003.3 119.9
02/10:30pm 23.8 25.8 23.6 99 0.1 SE 26 39 14 21 1003.3 1003.3 117.4
02/10:00pm 23.6 24.4 23.3 98 0.2 SE 30 39 16 21 1003.1 1003.1 116.9
02/09:30pm 23.3 23.5 23.1 99 0.1 SE 28 42 15 23 1002.9 1002.9 116.9
02/09:00pm 23.4 24.4 23.4 100 0.0 SE 31 39 17 21 1002.9 1002.9 115.1
02/08:30pm 23.5 23.3 23.5 100 0.0 SE 35 52 19 28 1002.6 1002.6 112.8
02/08:00pm 23.8 25.1 23.8 100 -0.0 SE 27 47 15 25 1002.5 1002.5 107.7
02/07:30pm 23.9 25.0 23.9 100 0.0 SE 28 39 15 21 1002.4 1002.4 101.4
02/07:00pm 24.3 25.6 24.3 100 0.0 SE 32 45 18 24 1002.2 1002.2 92.2
02/06:30pm 24.7 25.9 24.5 99 0.1 SE 26 37 14 20 1001.6 1001.6 92.0
02/06:00pm 24.8 26.7 24.6 99 0.1 ESE 24 34 13 18 1001.3 1001.3 92.0
02/05:30pm 25.0 26.3 24.8 99 0.1 SE 28 37 15 20 1000.9 1000.9 92.0
02/05:00pm 25.1 27.7 25.1 100 0.0 ESE 24 34 13 18 1000.7 1000.7 92.0
02/04:30pm 25.1 26.0 25.1 100 0.0 E 33 47 18 25 1000.6 1000.6 91.5
02/04:00pm 24.7 27.4 24.7 100 0.0 SE 20 32 11 17 1000.6 1000.6 91.2
02/03:30pm 24.7 27.9 24.7 100 0.0 SE 19 29 10 16 1000.8 1000.8 83.8
02/03:00pm 24.7 27.4 24.7 100 0.0 ESE 23 39 12 21 1001.3 1001.3 75.2
02/02:30pm 25.2 25.9 25.2 100 0.0 E 36 50 19 27 1001.5 1001.5 69.1
02/02:00pm 25.3 29.1 25.3 100 0.0 SE 18 26 10 14 1001.9 1001.9 66.8
02/01:30pm 24.9 29.8 24.9 100 0.0 ESE 12 26 7 14 1002.2 1002.2 66.6
02/01:00pm 24.9 28.8 24.9 100 -0.0 SE 15 21 8 11 1002.3 1002.3 59.2
02/12:30pm 24.7 28.7 24.7 100 0.0 SE 13 18 7 10 1002.8 1002.8 56.9
02/12:00pm 24.7 28.0 24.7 100 0.0 SE 16 23 9 13 1003.3 1003.3 52.3
02/11:30am 24.8 29.4 24.8 100 0.0 SE 12 18 6 10 1003.7 1003.7 41.9
02/11:00am 24.9 27.9 24.9 100 0.0 ENE 20 26 11 14 1003.6 1003.6 37.1
02/10:30am 24.9 26.9 24.9 100 0.0 ENE 28 45 15 24 1003.6 1003.6 32.0
02/10:00am 25.0 28.2 25.0 100 -0.0 ENE 18 34 10 18 1003.5 1003.5 29.5
02/09:30am 24.7 27.6 24.7 100 -0.0 SE 20 29 11 16 1003.5 1003.5 26.4
02/09:00am 24.7 27.3 24.7 100 0.0 SE 24 37 13 20 1003.9 1003.9 6.9
02/08:30am 24.6 30.2 24.6 100 0.0 SSE 5 10 3 6 1003.8 1003.8 282.2
02/08:00am 24.7 27.2 24.7 100 -0.0 E 34 42 18 23 1003.5 1003.5 264.2
02/07:30am 24.7 30.0 24.7 100 -0.0 SE 7 10 4 6 1003.4 1003.4 226.1
02/07:00am 24.1 28.6 24.1 100 -0.0 S 11 16 6 9 1003.2 1003.2 193.8
02/06:30am 24.4 28.5 24.4 100 0.0 NW 10 16 6 9 1003.0 1003.0 154.2
02/06:00am 25.2 30.1 25.2 100 0.0 SW 15 23 8 13 1002.3 1002.3 129.1
02/05:30am 24.9 30.4 24.9 100 0.0 SW 10 18 5 10 1001.8 1001.8 116.4
02/05:00am 25.1 27.9 25.1 100 -0.0 NE 23 32 12 17 1001.5 1001.5 114.1
02/04:30am 25.3 27.6 25.3 100 0.0 E 24 32 13 17 1001.2 1001.2 110.0
02/04:00am 25.1 27.7 25.1 100 0.0 ENE 22 32 12 17 1001.2 1001.2 109.5
02/03:30am 25.0 26.9 25.0 100 -0.0 ENE 25 34 13 18 1001.1 1001.1 102.9
02/03:00am 24.9 26.9 24.9 100 0.0 ENE 32 42 17 23 1001.1 1001.1 101.1
02/02:30am 25.2 29.1 25.2 100 0.0 E 28 47 15 25 1001.3 1001.3 96.5
02/02:00am 25.4 27.6 25.4 100 -0.0 NE 28 37 15 20 1001.9 1001.9 89.4
02/01:30am 25.7 28.3 25.7 100 -0.0 ENE 24 34 13 18 1002.2 1002.2 79.8
02/01:00am 25.4 29.2 25.4 100 0.0 ESE 20 34 11 18 1002.6 1002.6 77.0
02/12:30am 25.3 29.2 25.3 100 0.0 SE 16 29 9 16 1002.9 1002.9 76.2
02/12:00am 25.3 28.6 25.1 99 0.1 ESE 18 23 10 13 1003.4 1003.4 75.7
 


NOTE: The apparent temperature specified in the table above is calculated using both the Heat Index and Steadman method. This differs to the Bureau of Meteorology's calculation which uses the Steadman method alone.